Time;durP1;ratioP1;P1;durP2;ratioP2;P2;SDS_P1;SDS_P2;PMS_P1;PMS_P2;Temp;Humidity;BMP_temperature;BMP_pressure;BME280_temperature;BME280_humidity;BME280_pressure;Samples;Min_cycle;Max_cycle;Signal;HPM_P1;HPM_P2
2022/03/20 00:02:22;;;;;;;32.03;20.80;;;2.90;99.90;;;;;;4972656;28;20516;-50
2022/03/20 00:04:49;;;;;;;32.80;19.67;;;3.00;99.90;;;;;;4973449;28;20470;-51
2022/03/20 00:07:15;;;;;;;24.57;19.37;;;2.90;99.90;;;;;;4974510;28;20524;-50
2022/03/20 00:09:42;;;;;;;28.20;21.47;;;2.80;99.90;;;;;;4974018;28;21023;-50
2022/03/20 00:12:10;;;;;;;28.73;20.17;;;2.80;99.90;;;;;;4974641;28;20486;-51
2022/03/20 00:14:36;;;;;;;30.33;21.00;;;2.80;99.90;;;;;;4968813;28;20540;-51
2022/03/20 00:17:03;;;;;;;33.77;21.30;;;2.70;99.90;;;;;;4973665;28;20449;-50
2022/03/20 00:19:32;;;;;;;32.80;22.67;;;2.70;99.90;;;;;;4970525;28;20489;-51
2022/03/20 00:21:59;;;;;;;29.30;21.70;;;2.60;99.90;;;;;;4973550;28;21150;-50
2022/03/20 00:24:26;;;;;;;41.53;23.47;;;2.60;99.90;;;;;;4972099;28;20520;-51
2022/03/20 00:26:56;;;;;;;27.53;20.83;;;2.50;99.90;;;;;;4973617;28;20462;-50
2022/03/20 00:29:24;;;;;;;34.23;20.63;;;2.50;99.90;;;;;;4973029;28;21022;-51
2022/03/20 00:31:50;;;;;;;30.00;21.67;;;2.40;99.90;;;;;;4973269;28;20831;-50
2022/03/20 00:34:17;;;;;;;30.30;20.40;;;2.30;99.90;;;;;;4984913;28;20508;-50
2022/03/20 00:36:45;;;;;;;25.97;20.20;;;2.30;99.90;;;;;;4970198;28;21057;-50
2022/03/20 00:39:12;;;;;;;29.17;22.10;;;2.40;99.90;;;;;;4972635;28;20488;-50
2022/03/20 00:41:38;;;;;;;30.37;21.80;;;2.30;99.90;;;;;;4973864;28;20477;-50
2022/03/20 00:44:05;;;;;;;28.47;21.30;;;2.30;99.90;;;;;;4973122;28;21021;-50
2022/03/20 00:46:32;;;;;;;32.37;21.30;;;2.30;99.90;;;;;;4973148;28;21037;-50
2022/03/20 00:48:59;;;;;;;30.10;20.73;;;2.20;99.90;;;;;;4973189;28;20485;-50
2022/03/20 00:51:25;;;;;;;34.83;21.00;;;2.10;99.90;;;;;;4973564;28;20477;-50
2022/03/20 00:53:53;;;;;;;29.77;19.60;;;2.10;99.90;;;;;;4973323;28;20469;-50
2022/03/20 00:56:21;;;;;;;26.27;20.60;;;2.10;99.90;;;;;;4973452;28;20450;-51
2022/03/20 00:58:47;;;;;;;28.90;21.73;;;2.00;99.90;;;;;;4961607;28;20535;-50
2022/03/20 01:01:14;;;;;;;25.77;19.70;;;2.00;99.90;;;;;;4972661;28;20466;-51
2022/03/20 01:03:41;;;;;;;26.23;19.67;;;2.00;99.90;;;;;;4966853;28;20524;-50
2022/03/20 01:06:08;;;;;;;34.73;22.27;;;1.90;99.90;;;;;;4973748;28;20480;-51
2022/03/20 01:08:35;;;;;;;27.60;20.37;;;1.90;99.90;;;;;;4972798;28;20497;-50
2022/03/20 01:11:04;;;;;;;27.87;20.03;;;2.00;99.90;;;;;;4967488;28;20485;-51
2022/03/20 01:13:30;;;;;;;27.87;20.37;;;2.00;99.90;;;;;;4967870;28;20458;-51
2022/03/20 01:15:59;;;;;;;27.37;21.33;;;2.00;99.90;;;;;;4968659;28;20469;-50
2022/03/20 01:18:26;;;;;;;27.70;19.50;;;2.10;99.90;;;;;;4971932;28;20520;-50
2022/03/20 01:20:52;;;;;;;31.47;22.50;;;2.10;99.90;;;;;;4970019;28;20841;-50
2022/03/20 01:23:21;;;;;;;29.97;21.17;;;2.10;99.90;;;;;;4969751;28;20484;-50
2022/03/20 01:25:47;;;;;;;29.87;21.20;;;2.10;99.90;;;;;;4972416;28;21027;-50
2022/03/20 01:28:15;;;;;;;32.53;21.97;;;2.00;99.90;;;;;;4971332;28;20457;-50
2022/03/20 01:30:42;;;;;;;28.70;19.20;;;2.10;99.90;;;;;;4972596;28;20493;-50
2022/03/20 01:33:09;;;;;;;32.13;21.90;;;2.10;99.90;;;;;;4969484;28;20563;-50
2022/03/20 01:35:35;;;;;;;27.00;20.60;;;2.10;99.90;;;;;;4965964;28;20509;-50
2022/03/20 01:38:02;;;;;;;26.17;20.03;;;2.10;99.90;;;;;;4970238;28;20508;-51
2022/03/20 01:40:29;;;;;;;29.93;20.40;;;2.10;99.90;;;;;;4967778;28;20835;-51
2022/03/20 01:42:56;;;;;;;29.40;20.97;;;2.10;99.90;;;;;;4970913;28;20449;-51
2022/03/20 01:45:25;;;;;;;28.20;19.83;;;2.10;99.90;;;;;;4971692;28;20982;-51
2022/03/20 01:47:53;;;;;;;30.03;20.33;;;2.10;99.90;;;;;;4969926;28;20528;-50
2022/03/20 01:50:21;;;;;;;32.60;20.87;;;2.10;99.90;;;;;;4967935;28;20524;-50
2022/03/20 01:52:50;;;;;;;30.17;21.93;;;2.10;99.90;;;;;;4970443;28;20508;-51
2022/03/20 01:55:19;;;;;;;31.97;20.70;;;2.10;99.90;;;;;;4970938;28;20516;-51
2022/03/20 01:57:45;;;;;;;26.20;20.27;;;2.10;99.90;;;;;;4968820;28;20461;-51
2022/03/20 02:00:14;;;;;;;29.30;19.90;;;2.00;99.90;;;;;;4970112;28;20911;-50
2022/03/20 02:02:42;;;;;;;29.30;19.73;;;2.00;99.90;;;;;;4972249;28;20457;-51
2022/03/20 02:05:10;;;;;;;29.63;21.83;;;2.00;99.90;;;;;;4970755;28;20466;-50
2022/03/20 02:07:37;;;;;;;24.33;18.90;;;2.00;99.90;;;;;;4963979;28;20453;-50
2022/03/20 02:10:05;;;;;;;25.83;21.00;;;1.90;99.90;;;;;;4971478;28;21006;-50
2022/03/20 02:12:32;;;;;;;28.80;20.97;;;1.90;99.90;;;;;;4970579;28;20903;-51
2022/03/20 02:15:01;;;;;;;27.97;19.80;;;1.90;99.90;;;;;;4971581;28;20461;-50
2022/03/20 02:17:28;;;;;;;29.40;20.10;;;1.90;99.90;;;;;;4970972;28;20469;-51
2022/03/20 02:19:57;;;;;;;26.63;20.00;;;1.90;99.90;;;;;;4956571;28;20573;-50
2022/03/20 02:22:26;;;;;;;28.67;21.00;;;1.90;99.90;;;;;;4967478;28;20513;-50
2022/03/20 02:24:53;;;;;;;27.77;20.43;;;1.90;99.90;;;;;;4967275;28;20465;-51
2022/03/20 02:27:23;;;;;;;28.40;21.80;;;1.90;99.90;;;;;;4970440;28;20465;-51
2022/03/20 02:29:53;;;;;;;28.53;20.73;;;1.80;99.90;;;;;;4971062;28;20493;-50
2022/03/20 02:32:23;;;;;;;30.63;20.37;;;1.90;99.90;;;;;;4966461;28;20535;-50
2022/03/20 02:34:50;;;;;;;27.57;20.60;;;1.70;99.90;;;;;;4967654;28;20536;-50
2022/03/20 02:37:19;;;;;;;31.50;20.80;;;1.70;99.90;;;;;;4971469;28;20536;-50
2022/03/20 02:39:47;;;;;;;25.27;19.13;;;1.70;99.90;;;;;;4969912;28;21011;-51
2022/03/20 02:42:15;;;;;;;30.87;21.40;;;1.80;99.90;;;;;;4971544;28;20493;-50
2022/03/20 02:44:56;;;;;;;25.70;19.60;;;1.80;99.90;;;;;;4963837;28;20554;-50
2022/03/20 02:47:24;;;;;;;35.30;22.07;;;1.80;99.90;;;;;;4970616;28;20487;-50
2022/03/20 02:49:55;;;;;;;30.73;21.70;;;1.70;99.90;;;;;;4973314;28;20572;-50
2022/03/20 02:52:24;;;;;;;29.57;20.60;;;1.70;99.90;;;;;;4971496;28;20509;-50
2022/03/20 02:54:52;;;;;;;27.80;19.83;;;1.60;99.90;;;;;;4971180;28;20468;-50
2022/03/20 02:57:19;;;;;;;34.23;21.60;;;1.60;99.90;;;;;;4971893;28;20461;-50
2022/03/20 02:59:46;;;;;;;33.33;20.60;;;1.60;99.90;;;;;;4968081;28;20886;-52
2022/03/20 03:02:13;;;;;;;32.30;20.90;;;1.60;99.90;;;;;;4968952;28;20457;-50
2022/03/20 03:04:41;;;;;;;26.63;20.47;;;1.60;99.90;;;;;;4975222;28;20469;-50
2022/03/20 03:07:08;;;;;;;30.67;20.87;;;1.60;99.90;;;;;;4972392;28;20822;-50
2022/03/20 03:12:21;;;;;;;24.77;18.17;;;1.50;99.90;;;;;;4973511;28;20839;-50
2022/03/20 03:17:32;;;;;;;30.17;19.90;;;1.50;99.90;;;;;;4974462;28;20456;-50
2022/03/20 03:19:58;;;;;;;27.90;20.77;;;1.50;99.90;;;;;;4968892;23;20530;-50
2022/03/20 03:22:26;;;;;;;29.90;21.47;;;1.40;99.90;;;;;;4936944;29;20620;-49
2022/03/20 03:24:53;;;;;;;26.40;17.87;;;1.50;99.90;;;;;;4936075;29;20897;-49
2022/03/20 03:27:21;;;;;;;36.60;21.50;;;1.40;99.90;;;;;;4935364;29;20494;-49
2022/03/20 03:29:48;;;;;;;33.67;20.00;;;1.40;99.90;;;;;;4934502;29;20511;-49
2022/03/20 03:32:14;;;;;;;27.47;20.13;;;1.30;99.90;;;;;;4934643;29;20529;-49
2022/03/20 03:37:26;;;;;;;25.33;20.93;;;1.20;99.90;;;;;;4935396;29;20526;-49
2022/03/20 03:39:52;;;;;;;28.30;20.33;;;1.20;99.90;;;;;;4933912;29;20510;-48
2022/03/20 03:42:21;;;;;;;31.27;21.03;;;1.30;99.90;;;;;;4937525;29;20494;-49
2022/03/20 03:44:50;;;;;;;29.53;18.93;;;1.20;99.90;;;;;;4935912;29;20467;-50
2022/03/20 03:47:16;;;;;;;25.80;20.67;;;1.20;99.90;;;;;;4935532;29;20866;-49
2022/03/20 03:49:43;;;;;;;27.87;20.37;;;1.20;99.90;;;;;;4933945;29;20546;-49
2022/03/20 03:52:11;;;;;;;33.83;20.63;;;1.20;99.90;;;;;;4936210;29;20519;-49
2022/03/20 03:54:38;;;;;;;30.43;20.50;;;1.20;99.90;;;;;;4934600;29;20502;-49
2022/03/20 03:57:06;;;;;;;27.43;20.23;;;1.20;99.90;;;;;;4934986;29;20503;-50
2022/03/20 03:59:33;;;;;;;26.70;19.73;;;1.10;99.90;;;;;;4932667;29;20483;-48
2022/03/20 04:02:01;;;;;;;28.20;20.23;;;1.10;99.90;;;;;;4933792;29;20491;-49
2022/03/20 04:04:27;;;;;;;35.43;20.90;;;1.00;99.90;;;;;;4935763;29;20474;-49
2022/03/20 04:06:54;;;;;;;25.07;19.17;;;0.90;99.90;;;;;;4935541;29;20941;-49
2022/03/20 04:09:21;;;;;;;23.73;18.83;;;0.90;99.90;;;;;;4933775;29;20892;-48
2022/03/20 04:11:48;;;;;;;28.97;20.60;;;0.90;99.90;;;;;;4933726;29;20511;-50
2022/03/20 04:14:15;;;;;;;27.97;19.27;;;0.90;99.90;;;;;;4933056;29;20558;-49
2022/03/20 04:16:42;;;;;;;30.53;20.27;;;0.90;99.90;;;;;;4933688;29;20597;-49
2022/03/20 04:19:10;;;;;;;26.57;21.00;;;0.80;99.90;;;;;;4933632;29;20542;-50
2022/03/20 04:21:37;;;;;;;27.47;20.83;;;0.80;99.90;;;;;;4934204;29;20889;-50
2022/03/20 04:24:04;;;;;;;28.97;21.70;;;0.80;99.90;;;;;;4936117;29;20495;-49
2022/03/20 04:26:33;;;;;;;26.47;20.00;;;0.80;99.90;;;;;;4934780;29;20460;-50
2022/03/20 04:28:59;;;;;;;22.83;18.80;;;0.70;99.90;;;;;;4933209;29;20957;-49
2022/03/20 04:31:26;;;;;;;28.57;21.23;;;0.60;99.90;;;;;;4932522;29;20546;-49
2022/03/20 04:33:55;;;;;;;33.27;21.20;;;0.60;99.90;;;;;;4932373;29;20491;-48
2022/03/20 04:36:23;;;;;;;29.50;21.40;;;0.60;99.90;;;;;;4932778;29;20477;-49
2022/03/20 04:38:51;;;;;;;31.40;20.53;;;0.70;99.90;;;;;;4932861;29;20467;-49
2022/03/20 04:41:18;;;;;;;31.73;21.20;;;0.70;99.90;;;;;;4933889;29;20923;-49
2022/03/20 04:43:45;;;;;;;30.80;21.07;;;0.70;99.90;;;;;;4933627;29;21012;-49
2022/03/20 04:46:12;;;;;;;30.23;22.03;;;0.70;99.90;;;;;;4933906;29;20503;-50
2022/03/20 04:59:36;;;;;;;27.57;20.60;;;0.70;99.90;;;;;;4931435;29;20491;-49
2022/03/20 05:02:04;;;;;;;37.20;22.60;;;0.70;99.90;;;;;;4929972;29;21087;-49
2022/03/20 05:04:30;;;;;;;29.50;22.23;;;0.70;99.90;;;;;;4934278;29;20538;-49
2022/03/20 05:06:58;;;;;;;30.37;22.80;;;0.60;99.90;;;;;;4934374;29;20961;-49
2022/03/20 05:14:57;;;;;;;30.93;21.90;;;0.80;99.90;;;;;;4934627;29;20506;-49
2022/03/20 05:17:24;;;;;;;32.23;22.00;;;0.70;99.90;;;;;;4934347;29;20459;-49
2022/03/20 05:19:50;;;;;;;28.17;20.90;;;0.70;99.90;;;;;;4933310;29;20495;-48
2022/03/20 05:22:18;;;;;;;27.67;19.97;;;0.60;99.90;;;;;;4929436;29;20483;-50
2022/03/20 05:24:45;;;;;;;32.43;23.77;;;0.70;99.90;;;;;;4931909;29;20494;-50
2022/03/20 05:27:12;;;;;;;31.97;22.10;;;0.70;99.90;;;;;;4934200;29;20470;-49
2022/03/20 05:29:40;;;;;;;31.93;21.73;;;0.70;99.90;;;;;;4935675;29;20868;-48
2022/03/20 05:32:08;;;;;;;28.20;21.23;;;0.70;99.90;;;;;;4932100;29;21065;-49
2022/03/20 05:34:36;;;;;;;34.50;21.60;;;0.70;99.90;;;;;;4932248;29;21027;-48
2022/03/20 05:37:04;;;;;;;31.10;21.97;;;0.80;99.90;;;;;;4934582;29;20460;-49
2022/03/20 05:39:33;;;;;;;33.87;22.90;;;0.80;99.90;;;;;;4932941;29;20493;-49
2022/03/20 05:42:00;;;;;;;31.90;21.80;;;0.80;99.90;;;;;;4934758;29;20495;-48
2022/03/20 05:44:27;;;;;;;36.63;22.80;;;0.90;99.90;;;;;;4924675;29;21096;-49
2022/03/20 05:46:57;;;;;;;30.20;22.03;;;0.90;99.90;;;;;;4929284;29;20873;-50
2022/03/20 05:49:25;;;;;;;34.30;21.40;;;0.90;99.90;;;;;;4932002;29;20493;-48
2022/03/20 05:51:52;;;;;;;32.50;22.10;;;0.90;99.90;;;;;;4928381;29;20966;-50
2022/03/20 05:54:19;;;;;;;31.40;21.40;;;1.00;99.90;;;;;;4933430;29;20478;-49
2022/03/20 05:59:31;;;;;;;31.23;22.87;;;1.50;99.90;;;;;;4933187;29;20853;-50
2022/03/20 06:01:57;;;;;;;31.90;21.30;;;1.80;99.90;;;;;;4930116;29;20546;-49
2022/03/20 06:04:24;;;;;;;34.20;21.30;;;2.00;99.90;;;;;;4932848;29;20499;-49
2022/03/20 06:06:50;;;;;;;30.50;22.60;;;2.20;99.90;;;;;;4932988;29;20490;-49
2022/03/20 06:09:17;;;;;;;31.00;21.87;;;2.40;99.90;;;;;;4932232;29;20534;-49
2022/03/20 06:11:44;;;;;;;29.93;22.03;;;2.40;99.90;;;;;;4933009;29;20455;-53
2022/03/20 06:14:12;;;;;;;30.80;20.67;;;2.50;99.90;;;;;;4932805;29;20935;-50
2022/03/20 06:16:39;;;;;;;34.47;21.37;;;2.40;99.90;;;;;;4934077;29;20555;-49
2022/03/20 06:19:07;;;;;;;35.73;21.83;;;2.20;99.90;;;;;;4933285;29;20486;-48
2022/03/20 06:21:34;;;;;;;37.47;21.03;;;2.40;99.90;;;;;;4928987;29;20467;-50
2022/03/20 06:24:01;;;;;;;29.90;22.77;;;2.40;99.90;;;;;;4931433;29;20468;-49
2022/03/20 06:26:27;;;;;;;30.40;22.00;;;2.50;99.90;;;;;;4921589;29;20878;-48
2022/03/20 06:28:54;;;;;;;29.10;21.23;;;2.70;99.90;;;;;;4933542;29;20463;-48
2022/03/20 06:31:22;;;;;;;31.70;21.00;;;2.80;99.90;;;;;;4929764;29;20482;-50
2022/03/20 06:33:49;;;;;;;29.03;20.80;;;3.00;99.90;;;;;;4931685;29;20495;-49
2022/03/20 06:36:16;;;;;;;29.33;21.00;;;3.00;99.90;;;;;;4934264;29;20475;-50
2022/03/20 06:38:42;;;;;;;39.17;23.40;;;3.00;99.90;;;;;;4931522;29;20448;-50
2022/03/20 06:41:09;;;;;;;28.43;21.83;;;3.00;99.90;;;;;;4932703;29;20498;-48
2022/03/20 06:43:37;;;;;;;31.30;21.70;;;3.00;99.90;;;;;;4937925;29;20467;-49
2022/03/20 06:46:04;;;;;;;30.20;21.37;;;3.20;99.90;;;;;;4937670;29;20452;-49
2022/03/20 06:48:32;;;;;;;33.97;22.67;;;3.40;99.90;;;;;;4936688;29;20475;-49
2022/03/20 06:50:59;;;;;;;31.10;21.53;;;3.50;99.90;;;;;;4937977;29;20482;-49
2022/03/20 06:53:26;;;;;;;46.63;22.13;;;3.60;99.90;;;;;;4931662;29;20580;-49
2022/03/20 06:55:53;;;;;;;34.13;21.07;;;3.60;99.90;;;;;;4935170;29;20458;-49
2022/03/20 06:58:22;;;;;;;32.80;22.10;;;3.70;99.90;;;;;;4936709;29;20554;-49
2022/03/20 07:00:49;;;;;;;30.70;20.07;;;3.70;99.90;;;;;;4939257;28;21080;-48
2022/03/20 07:03:16;;;;;;;32.63;21.57;;;3.80;99.90;;;;;;4933660;29;20579;-48
2022/03/20 07:05:44;;;;;;;27.27;19.63;;;4.10;99.90;;;;;;4937728;29;21055;-49
2022/03/20 07:08:11;;;;;;;31.80;21.17;;;4.20;99.90;;;;;;4944719;29;20471;-48
2022/03/20 07:10:38;;;;;;;29.27;19.90;;;4.10;99.90;;;;;;4949215;28;21049;-49
2022/03/20 07:15:53;;;;;;;31.93;21.07;;;4.30;99.90;;;;;;4938084;29;20912;-50
2022/03/20 07:18:21;;;;;;;32.40;20.77;;;4.30;99.90;;;;;;4933671;29;20953;-50
2022/03/20 07:20:49;;;;;;;31.07;21.00;;;4.50;99.90;;;;;;4944186;29;20585;-49
2022/03/20 07:23:17;;;;;;;26.13;19.00;;;4.50;99.90;;;;;;4935559;29;20559;-49
2022/03/20 07:31:14;;;;;;;30.50;22.27;;;5.00;99.90;;;;;;4931659;29;20685;-49
2022/03/20 07:33:41;;;;;;;35.47;22.10;;;5.40;99.90;;;;;;4932687;29;20485;-49
2022/03/20 07:36:09;;;;;;;30.50;21.33;;;5.50;99.90;;;;;;4935916;29;20458;-48
2022/03/20 07:38:36;;;;;;;28.37;21.53;;;5.50;99.90;;;;;;4927635;29;20511;-48
2022/03/20 07:41:03;;;;;;;34.23;20.13;;;5.30;99.90;;;;;;4933140;29;20483;-49
2022/03/20 07:43:30;;;;;;;38.40;22.53;;;5.60;99.90;;;;;;4936477;29;20475;-49
2022/03/20 07:45:57;;;;;;;29.10;21.03;;;5.50;99.90;;;;;;4936148;29;20471;-52
2022/03/20 07:48:24;;;;;;;31.33;22.10;;;5.60;99.90;;;;;;4929299;29;20901;-49
2022/03/20 07:50:51;;;;;;;38.90;22.50;;;5.90;99.90;;;;;;4932830;29;20510;-51
2022/03/20 07:53:20;;;;;;;31.50;22.47;;;5.90;99.90;;;;;;4940790;29;20486;-49
2022/03/20 07:55:47;;;;;;;30.70;20.13;;;6.10;99.90;;;;;;4934578;29;20521;-48
2022/03/20 07:58:18;;;;;;;36.97;21.63;;;6.40;99.90;;;;;;4929525;29;20463;-49
2022/03/20 08:00:45;;;;;;;32.33;20.33;;;6.70;99.90;;;;;;4930292;29;20522;-49
2022/03/20 08:03:11;;;;;;;31.37;22.20;;;6.30;99.90;;;;;;4931422;29;20463;-48
2022/03/20 08:05:38;;;;;;;34.00;21.37;;;6.40;99.90;;;;;;4935949;29;20463;-50
2022/03/20 08:08:05;;;;;;;30.60;21.23;;;6.20;99.90;;;;;;4936960;29;20791;-50
2022/03/20 08:10:33;;;;;;;35.80;20.90;;;6.30;99.90;;;;;;4932851;29;20491;-48
2022/03/20 08:13:00;;;;;;;31.90;22.30;;;6.70;99.90;;;;;;4933202;29;20487;-50
2022/03/20 08:15:26;;;;;;;31.67;21.00;;;6.40;99.90;;;;;;4933597;29;20475;-49
2022/03/20 08:17:53;;;;;;;32.47;22.20;;;6.70;99.90;;;;;;4941980;29;20479;-50
2022/03/20 08:20:20;;;;;;;27.83;19.93;;;6.60;99.90;;;;;;4934702;29;20502;-49
2022/03/20 08:22:48;;;;;;;36.20;21.07;;;6.70;99.90;;;;;;4935157;29;20951;-49
2022/03/20 08:25:14;;;;;;;28.27;21.87;;;6.80;99.90;;;;;;4936674;29;20467;-49
2022/03/20 08:27:46;;;;;;;35.70;20.93;;;6.90;99.90;;;;;;4930299;29;20949;-48
2022/03/20 08:30:15;;;;;;;30.70;20.60;;;6.70;99.90;;;;;;4936725;29;21013;-49
2022/03/20 08:32:41;;;;;;;29.30;20.93;;;6.90;99.90;;;;;;4936875;29;20527;-49
2022/03/20 08:35:09;;;;;;;41.47;22.07;;;7.10;99.90;;;;;;4935412;29;20471;-49
2022/03/20 08:37:35;;;;;;;35.37;20.73;;;7.70;99.90;;;;;;4935688;29;20467;-48
2022/03/20 08:40:03;;;;;;;37.53;23.53;;;8.10;99.90;;;;;;4934709;29;20494;-49
2022/03/20 08:42:29;;;;;;;30.67;20.33;;;7.70;99.90;;;;;;4941890;29;20474;-49
2022/03/20 08:44:57;;;;;;;29.90;21.10;;;8.00;99.90;;;;;;4945510;29;20507;-53
2022/03/20 08:47:27;;;;;;;32.03;21.33;;;8.30;99.90;;;;;;4947492;29;20475;-50
2022/03/20 08:49:54;;;;;;;31.63;20.13;;;9.00;99.90;;;;;;4939795;29;20475;-56
2022/03/20 08:52:20;;;;;;;34.17;21.57;;;9.80;99.90;;;;;;4933123;29;20478;-51
2022/03/20 08:54:47;;;;;;;30.10;20.77;;;9.80;99.90;;;;;;4934116;29;20522;-49
2022/03/20 08:57:15;;;;;;;29.03;19.53;;;9.30;99.90;;;;;;4929301;29;20896;-49
2022/03/20 08:59:42;;;;;;;33.30;19.53;;;8.70;99.90;;;;;;4926695;29;20475;-50
2022/03/20 09:02:10;;;;;;;30.60;21.73;;;9.70;99.90;;;;;;4933819;29;20471;-50
2022/03/20 09:04:37;;;;;;;42.13;21.73;;;10.40;99.90;;;;;;4932363;29;20547;-50
2022/03/20 09:07:04;;;;;;;30.80;20.47;;;9.00;99.90;;;;;;4935522;29;20451;-49
2022/03/20 09:09:30;;;;;;;32.90;22.70;;;10.00;99.90;;;;;;4934870;29;20996;-49
2022/03/20 09:11:57;;;;;;;29.03;20.00;;;10.30;99.90;;;;;;4933424;29;20837;-49
2022/03/20 09:14:23;;;;;;;29.00;20.23;;;10.70;99.90;;;;;;4934640;29;20629;-49
2022/03/20 09:19:37;;;;;;;37.10;20.13;;;12.10;99.90;;;;;;4949598;23;21014;-51
2022/03/20 09:22:06;;;;;;;29.03;20.10;;;12.20;99.90;;;;;;4950444;28;20537;-51
2022/03/20 09:24:32;;;;;;;30.20;20.50;;;11.40;99.90;;;;;;4951730;29;20497;-51
2022/03/20 09:27:00;;;;;;;34.13;20.90;;;10.80;99.90;;;;;;4953203;28;20490;-51
2022/03/20 09:29:26;;;;;;;33.43;20.10;;;12.20;99.90;;;;;;4950887;28;20569;-51
2022/03/20 09:31:53;;;;;;;31.53;20.20;;;11.70;99.90;;;;;;4950635;29;20475;-53
2022/03/20 09:34:20;;;;;;;30.30;20.27;;;12.20;99.90;;;;;;4942572;29;20486;-51
2022/03/20 09:36:48;;;;;;;28.77;20.93;;;12.70;99.90;;;;;;4940935;29;20883;-50
2022/03/20 09:39:14;;;;;;;33.57;22.27;;;12.50;99.90;;;;;;4941754;29;20911;-51
2022/03/20 09:41:42;;;;;;;32.03;20.47;;;11.20;99.90;;;;;;4951091;29;20447;-51
2022/03/20 09:44:09;;;;;;;27.43;20.57;;;11.00;99.90;;;;;;4943356;29;20459;-51
2022/03/20 09:46:36;;;;;;;28.73;20.63;;;11.40;99.90;;;;;;4941605;29;20469;-51
2022/03/20 09:49:05;;;;;;;29.80;19.93;;;11.30;99.90;;;;;;4925979;29;20495;-51
2022/03/20 09:51:32;;;;;;;27.23;19.77;;;10.60;99.90;;;;;;4944723;29;20470;-52
2022/03/20 09:54:00;;;;;;;34.70;20.60;;;12.00;99.90;;;;;;4942081;28;20576;-51
2022/03/20 09:56:27;;;;;;;29.37;20.80;;;12.40;99.90;;;;;;4945095;29;20495;-50
2022/03/20 09:58:53;;;;;;;28.10;20.47;;;11.90;99.90;;;;;;4942448;28;20553;-50
2022/03/20 10:01:20;;;;;;;28.20;21.10;;;12.10;99.90;;;;;;4937726;29;20511;-50
2022/03/20 10:03:47;;;;;;;28.97;20.17;;;11.40;99.90;;;;;;4947246;29;20486;-50
2022/03/20 10:06:16;;;;;;;37.50;20.53;;;11.90;99.90;;;;;;4943579;29;20463;-50
2022/03/20 10:09:09;;;;;;;32.23;22.20;;;12.70;99.90;;;;;;4942577;28;20960;-51
2022/03/20 10:11:38;;;;;;;27.83;19.23;;;13.30;99.90;;;;;;4922954;29;20475;-51
2022/03/20 10:14:10;;;;;;;31.13;21.47;;;12.70;99.90;;;;;;4944356;28;20887;-51
2022/03/20 10:16:38;;;;;;;36.97;20.73;;;13.10;99.90;;;;;;4944387;29;21003;-51
2022/03/20 10:19:26;;;;;;;29.37;20.30;;;13.00;99.90;;;;;;4941560;28;20466;-53
2022/03/20 10:21:54;;;;;;;32.53;19.27;;;13.80;99.90;;;;;;4947063;29;20521;-52
2022/03/20 10:24:24;;;;;;;26.93;19.00;;;13.20;99.90;;;;;;4939457;29;20973;-52
2022/03/20 10:27:04;;;;;;;27.50;19.30;;;14.50;99.90;;;;;;4943540;29;20447;-52
2022/03/20 10:29:31;;;;;;;30.57;18.70;;;13.80;99.90;;;;;;4945415;29;20486;-51
2022/03/20 10:32:01;;;;;;;28.70;19.97;;;13.30;99.90;;;;;;4946929;29;20887;-51
2022/03/20 10:34:28;;;;;;;24.03;18.47;;;13.30;99.90;;;;;;4944642;29;20518;-51
2022/03/20 10:36:55;;;;;;;28.10;19.47;;;14.00;99.90;;;;;;4943842;29;20474;-51
2022/03/20 10:39:28;;;;;;;28.40;19.60;;;14.30;99.90;;;;;;4941627;29;21016;-51
2022/03/20 10:41:56;;;;;;;26.23;19.17;;;14.10;99.90;;;;;;4946342;28;20553;-52
2022/03/20 10:44:25;;;;;;;27.23;19.20;;;15.10;99.90;;;;;;4953229;28;20458;-51
2022/03/20 10:46:57;;;;;;;26.60;18.77;;;14.20;99.90;;;;;;4952621;29;20462;-51
2022/03/20 10:49:24;;;;;;;26.73;19.50;;;14.60;99.90;;;;;;4939422;29;20487;-51
2022/03/20 10:52:02;;;;;;;22.83;18.03;;;14.00;99.90;;;;;;4947563;29;20905;-51
2022/03/20 10:54:41;;;;;;;26.63;18.83;;;14.10;99.90;;;;;;4941839;29;21019;-51
2022/03/20 10:57:08;;;;;;;28.00;18.20;;;12.80;99.90;;;;;;4945040;29;20466;-51
2022/03/20 10:59:35;;;;;;;25.97;18.43;;;12.00;99.90;;;;;;4945980;28;20489;-51
2022/03/20 11:02:05;;;;;;;24.37;17.93;;;12.50;99.90;;;;;;4939420;28;20459;-51
2022/03/20 11:04:33;;;;;;;27.47;17.20;;;12.30;99.90;;;;;;4939846;29;20545;-51
2022/03/20 11:07:06;;;;;;;24.73;16.80;;;12.20;99.90;;;;;;4944523;29;20521;-51
2022/03/20 11:09:33;;;;;;;24.00;17.70;;;12.20;99.90;;;;;;4946392;28;20521;-51
2022/03/20 11:12:08;;;;;;;25.03;16.47;;;11.80;99.90;;;;;;4944142;28;20459;-51
2022/03/20 11:14:36;;;;;;;29.60;17.10;;;11.70;99.90;;;;;;4948610;29;20506;-51
2022/03/20 11:17:06;;;;;;;23.10;17.43;;;11.20;99.90;;;;;;4945813;29;20498;-52
2022/03/20 11:19:35;;;;;;;24.20;17.90;;;11.50;99.90;;;;;;4940489;29;21006;-52
2022/03/20 11:22:04;;;;;;;26.03;17.13;;;11.90;99.90;;;;;;4947915;29;20454;-51
2022/03/20 11:24:32;;;;;;;26.60;17.23;;;12.20;99.90;;;;;;4944656;28;20482;-52
2022/03/20 11:27:01;;;;;;;18.93;15.57;;;12.20;99.90;;;;;;4942490;29;20565;-53
2022/03/20 11:29:30;;;;;;;24.33;17.20;;;12.50;99.90;;;;;;4943808;29;20513;-52
2022/03/20 11:31:59;;;;;;;23.90;17.10;;;12.40;99.90;;;;;;4944845;29;20468;-51
2022/03/20 11:34:26;;;;;;;25.63;18.23;;;11.70;99.90;;;;;;4947416;29;20514;-51
2022/03/20 11:37:11;;;;;;;25.23;18.47;;;11.50;99.90;;;;;;4954969;29;20474;-51
2022/03/20 11:39:40;;;;;;;22.70;16.43;;;12.00;99.90;;;;;;4946249;29;20525;-50
2022/03/20 11:42:28;;;;;;;21.00;17.80;;;11.90;99.90;;;;;;4951153;29;20498;-51
2022/03/20 11:45:10;;;;;;;19.70;16.27;;;11.80;99.90;;;;;;4943722;29;20495;-51
2022/03/20 11:47:38;;;;;;;31.07;19.70;;;11.80;99.90;;;;;;4943971;29;20470;-51
2022/03/20 11:50:09;;;;;;;29.80;20.63;;;11.90;99.90;;;;;;4944330;29;20861;-51
2022/03/20 11:52:48;;;;;;;23.53;17.27;;;12.10;99.90;;;;;;4945683;29;20914;-51
2022/03/20 11:55:32;;;;;;;25.00;17.00;;;12.40;99.90;;;;;;4944227;29;20519;-51
2022/03/20 11:58:01;;;;;;;28.27;17.10;;;12.70;99.90;;;;;;4945096;28;20458;-52
2022/03/20 12:00:29;;;;;;;23.00;17.40;;;13.00;99.90;;;;;;4940505;29;20614;-53
2022/03/20 12:03:32;;;;;;;27.37;16.93;;;12.90;99.90;;;;;;4945447;29;20903;-52
2022/03/20 12:06:27;;;;;;;23.17;17.17;;;12.90;99.90;;;;;;4952445;29;20529;-51
2022/03/20 12:09:20;;;;;;;24.53;16.93;;;12.60;99.90;;;;;;4938919;29;20451;-50
2022/03/20 12:12:03;;;;;;;23.90;16.07;;;12.60;99.90;;;;;;4946110;29;20897;-51
2022/03/20 12:14:38;;;;;;;23.10;17.27;;;12.60;99.90;;;;;;4953959;29;20581;-51
2022/03/20 12:17:04;;;;;;;22.80;18.20;;;12.10;99.90;;;;;;4949339;29;20473;-50
2022/03/20 12:19:39;;;;;;;25.20;17.33;;;12.20;99.90;;;;;;4945805;29;21078;-52
2022/03/20 12:22:07;;;;;;;26.23;17.73;;;11.90;99.90;;;;;;4952333;29;20509;-53
2022/03/20 12:24:53;;;;;;;23.00;17.40;;;12.10;99.90;;;;;;4940566;29;20458;-52
2022/03/20 12:27:41;;;;;;;22.50;18.13;;;12.30;99.90;;;;;;4945309;28;20462;-52
2022/03/20 12:30:33;;;;;;;21.03;16.63;;;12.50;99.90;;;;;;4940343;29;20900;-53
2022/03/20 12:33:01;;;;;;;23.03;18.03;;;12.60;99.90;;;;;;4944571;28;20469;-54
2022/03/20 12:35:29;;;;;;;23.57;16.50;;;13.10;99.90;;;;;;4946879;28;20606;-52
2022/03/20 12:37:56;;;;;;;22.30;16.50;;;12.90;99.90;;;;;;4950664;28;20494;-54
2022/03/20 12:40:26;;;;;;;25.90;17.50;;;13.30;99.90;;;;;;4954390;28;20518;-53
2022/03/20 12:42:57;;;;;;;28.50;17.03;;;12.80;99.90;;;;;;4948508;29;20470;-54
2022/03/20 12:45:26;;;;;;;19.40;15.80;;;14.10;99.90;;;;;;4946702;29;20459;-52
2022/03/20 12:47:57;;;;;;;17.40;14.43;;;14.20;99.90;;;;;;4946597;29;20495;-53
2022/03/20 12:50:25;;;;;;;25.50;15.47;;;14.20;99.90;;;;;;4950425;28;21064;-53
2022/03/20 12:52:55;;;;;;;17.00;13.73;;;14.40;99.90;;;;;;4942878;29;20470;-53
2022/03/20 12:55:27;;;;;;;18.77;15.90;;;13.40;99.90;;;;;;4944068;29;20486;-53
2022/03/20 12:57:54;;;;;;;20.60;14.70;;;13.30;99.90;;;;;;4944637;28;20469;-53
2022/03/20 13:00:22;;;;;;;18.70;14.83;;;13.10;99.90;;;;;;4948445;29;20513;-51
2022/03/20 13:03:03;;;;;;;20.07;14.90;;;13.20;99.90;;;;;;4945246;29;20494;-53
2022/03/20 13:05:31;;;;;;;19.23;13.90;;;13.60;99.90;;;;;;4940893;29;20549;-53
2022/03/20 13:07:58;;;;;;;16.50;13.20;;;13.40;99.90;;;;;;4941443;28;20494;-53
2022/03/20 13:10:26;;;;;;;29.93;14.60;;;13.80;99.90;;;;;;4943895;29;20863;-54
2022/03/20 13:12:55;;;;;;;19.60;14.13;;;14.00;99.90;;;;;;4937469;29;20498;-54
2022/03/20 13:15:23;;;;;;;17.57;13.50;;;13.70;99.90;;;;;;4954944;28;20537;-53
2022/03/20 13:17:50;;;;;;;21.70;14.33;;;14.60;99.90;;;;;;4947552;29;20482;-54
2022/03/20 13:20:20;;;;;;;23.30;14.30;;;14.70;99.90;;;;;;4948515;28;20451;-53